Latest Weather Observations for Lake Macquarie - Cooranbong

IDN60801

Issued at 10:35 pm EDT Friday 31 October 2014 (issued every 30 minutes, with the page automatically refreshed every 10 minutes)

About weather observations | Map of weather stations | Latest weather observations for NSW | Other Formats
Station Details ID: 061412 Name: LAKE MACQUARIE AWS Lat: -33.09 Lon: 151.46 Height: 6.0 m
Data from the previous 72 hours. | See also: Recent months at Lake Macquarie - Cooranbong
Date/Time
EDT
Temp
°C
App
Temp
°C
Dew
Point
Rel
Hum
%
Delta-T
°C
Wind Press
QNH
hPa
Press
MSL
hPa
Rain
since 9 am
mm
Dir
 
Spd
km/h
Gust
km/h
Spd
kts
Gust
kts
31/10:30pm 20.3 21.6 14.0 67 3.6 WNW 0 0 0 0 1007.2 1007.2 0.0
31/10:00pm 20.9 22.3 14.3 66 3.9 WNW 0 0 0 0 1007.3 1007.3 0.0
31/09:30pm 22.6 23.6 14.2 59 4.9 NW 2 4 1 2 1007.4 1007.4 0.0
31/09:00pm 23.9 23.9 13.7 53 6.0 E 6 7 3 4 1007.4 1007.4 0.0
31/08:30pm 24.9 24.6 11.5 43 7.6 ENE 4 9 2 5 1007.3 1007.3 0.0
31/08:00pm 24.3 23.8 9.5 39 8.1 ENE 2 6 1 3 1007.1 1007.1 0.0
31/07:30pm 27.1 25.9 6.5 27 10.8 NE 2 7 1 4 1007.1 1007.1 0.0
31/07:00pm 29.3 27.1 6.0 23 12.3 NE 7 9 4 5 1006.9 1006.9 0.0
31/06:30pm 30.4 28.1 5.6 21 13.1 NE 7 15 4 8 1006.8 1006.8 0.0
31/06:00pm 30.8 27.9 4.5 19 13.7 ENE 9 20 5 11 1006.8 1006.8 0.0
31/05:30pm 29.9 29.0 10.5 30 11.0 E 6 15 3 8 1006.9 1006.9 0.0
31/05:00pm 27.8 28.5 16.1 49 7.2 SE 7 13 4 7 1007.1 1007.1 0.0
31/04:30pm 28.0 27.9 15.0 45 7.9 ESE 9 19 5 10 1007.3 1007.3 0.0
31/04:00pm 27.8 29.0 17.3 52 6.6 SSE 7 17 4 9 1007.6 1007.6 0.0
31/03:30pm 27.3 27.6 17.8 56 6.0 ESE 13 22 7 12 1007.9 1007.9 0.0
31/03:00pm 26.6 25.7 16.8 55 6.1 ESE 17 30 9 16 1008.3 1008.3 0.0
31/02:30pm 26.7 25.5 16.0 52 6.6 E 17 28 9 15 1008.8 1008.8 0.0
31/02:00pm 26.8 25.3 15.2 49 7.0 E 17 28 9 15 1009.4 1009.4 0.0
31/01:30pm 27.7 26.6 15.4 47 7.5 E 15 22 8 12 1010.0 1010.0 0.0
31/01:00pm 27.8 28.0 14.8 45 7.9 E 7 15 4 8 1010.7 1010.7 0.0
31/12:30pm 27.8 27.4 16.1 49 7.2 E 13 19 7 10 1011.2 1011.2 0.0
31/12:00pm 28.8 28.9 16.4 47 7.7 E 11 17 6 9 1011.7 1011.7 0.0
31/11:30am 28.3 28.9 16.9 50 7.1 ESE 9 17 5 9 1012.3 1012.3 0.0
31/11:00am 28.3 28.8 15.6 46 7.8 E 7 11 4 6 1012.8 1012.8 0.0
31/10:30am 27.9 29.1 14.9 45 7.9 NE 2 7 1 4 1013.2 1013.2 0.0
31/10:00am 25.7 27.1 14.5 50 6.7 CALM 0 0 0 0 1013.2 1013.2 0.0
31/09:30am 23.8 25.4 15.0 57 5.3 CALM 0 0 0 0 1013.3 1013.3 0.0
31/09:00am 22.3 23.4 14.7 62 4.5 N 2 4 1 2 1013.4 1013.4 0.2
31/08:30am 20.0 21.3 14.1 69 3.4 CALM 0 0 0 0 1013.4 1013.4 0.2
31/08:00am 17.0 18.5 14.6 86 1.4 CALM 0 2 0 1 1013.5 1013.5 0.2
31/07:30am 13.2 13.5 12.1 93 0.6 N 2 4 1 2 1013.6 1013.6 0.2
31/07:00am 11.3 11.6 10.8 97 0.3 CALM 0 0 0 0 1013.6 1013.6 0.2
31/06:30am 10.3 10.3 9.8 97 0.3 N 0 0 0 0 1013.4 1013.4 0.0
31/06:00am 9.9 9.8 9.3 96 0.3 CALM 0 0 0 0 1013.3 1013.3 0.0
31/05:30am 9.8 9.6 9.2 96 0.3 CALM 0 0 0 0 1012.9 1012.9 0.0
31/05:00am 10.7 10.8 10.1 96 0.3 CALM 0 0 0 0 1012.7 1012.7 0.0
31/04:30am 10.7 10.8 10.1 96 0.3 WNW 0 0 0 0 1012.6 1012.6 0.0
31/04:00am 11.0 11.2 10.4 96 0.3 CALM 0 0 0 0 1012.6 1012.6 0.0
31/03:30am 11.3 11.5 10.7 96 0.3 CALM 0 4 0 2 1012.7 1012.7 0.0
31/03:00am 11.6 11.9 10.8 95 0.4 CALM 0 0 0 0 1012.7 1012.7 0.0
31/02:30am 12.1 12.5 11.3 95 0.4 CALM 0 0 0 0 1012.8 1012.8 0.0
31/02:00am 12.5 13.0 11.7 95 0.4 CALM 0 0 0 0 1012.9 1012.9 0.0
31/01:30am 12.8 13.4 12.0 95 0.4 CALM 0 0 0 0 1013.2 1013.2 0.0
31/01:00am 13.2 14.0 12.4 95 0.4 CALM 0 0 0 0 1013.5 1013.5 0.0
31/12:30am 13.3 14.1 12.4 94 0.5 CALM 0 0 0 0 1013.8 1013.8 0.0
31/12:00am 14.1 15.1 13.3 95 0.4 N 0 0 0 0 1013.8 1013.8 0.0
 
Date/Time
EDT
Temp
°C
App
Temp
°C
Dew
Point
Rel
Hum
%
Delta-T
°C
Wind Press
QNH
hPa
Press
MSL
hPa
Rain
since 9 am
mm
Dir
 
Spd
km/h
Gust
km/h
Spd
kts
Gust
kts
30/11:30pm 14.4 15.4 13.3 93 0.6 CALM 0 0 0 0 1014.0 1014.0 0.0
30/11:00pm 15.0 16.2 13.9 93 0.6 CALM 0 0 0 0 1014.0 1014.0 0.0
30/10:30pm 15.3 16.5 13.8 91 0.8 CALM 0 0 0 0 1013.9 1013.9 0.0
30/10:00pm 15.6 16.9 14.1 91 0.8 CALM 0 0 0 0 1013.9 1013.9 0.0
30/09:30pm 16.3 17.8 14.7 90 0.9 CALM 0 0 0 0 1013.8 1013.8 0.0
30/09:00pm 17.0 18.6 14.8 87 1.3 CALM 0 0 0 0 1013.6 1013.6 0.0
30/08:30pm 18.0 19.5 14.7 81 1.9 CALM 0 0 0 0 1013.4 1013.4 0.0
30/08:00pm 18.9 20.3 14.4 75 2.6 CALM 0 2 0 1 1013.1 1013.1 0.0
30/07:30pm 20.8 21.9 14.7 68 3.6 N 2 4 1 2 1012.8 1012.8 0.0
30/07:00pm 22.0 22.5 14.9 64 4.2 N 6 9 3 5 1012.4 1012.4 0.0
30/06:30pm 23.1 23.7 15.4 62 4.6 E 6 11 3 6 1012.2 1012.2 0.0
30/06:00pm 23.5 24.0 15.0 59 5.1 ESE 6 9 3 5 1012.0 1012.0 0.0
30/05:30pm 23.4 23.5 15.5 61 4.7 E 9 15 5 8 1011.9 1011.9 0.0
30/05:00pm 23.2 23.2 15.3 61 4.7 E 9 19 5 10 1011.9 1011.9 0.0
30/04:30pm 23.5 23.0 14.8 58 5.2 E 11 15 6 8 1011.9 1011.9 0.0
30/04:00pm 23.8 23.9 15.6 60 4.9 ENE 9 15 5 8 1012.0 1012.0 0.0
30/03:30pm 24.1 24.4 16.1 61 4.9 ENE 9 17 5 9 1012.2 1012.2 0.0
30/03:00pm 23.8 23.9 15.6 60 4.9 ENE 9 17 5 9 1012.3 1012.3 0.0
30/02:30pm 24.5 24.8 16.0 59 5.2 E 9 19 5 10 1012.7 1012.7 0.0
30/02:00pm 24.4 23.5 14.8 55 5.7 E 13 19 7 10 1012.9 1012.9 0.0
30/01:30pm 25.4 25.3 16.0 56 5.7 E 11 19 6 10 1013.1 1013.1 0.0
30/01:00pm 26.2 26.8 16.7 56 5.9 E 9 19 5 10 1013.0 1013.0 0.0
30/12:30pm 26.8 26.3 14.9 48 7.2 E 11 19 6 10 1013.5 1013.5 0.0
30/12:00pm 26.5 26.7 15.8 51 6.5 ESE 9 17 5 9 1014.0 1014.0 0.0
30/11:30am 26.6 26.5 15.0 49 7.0 E 9 15 5 8 1014.3 1014.3 0.0
30/11:00am 26.2 27.6 16.4 54 6.0 SE 4 7 2 4 1014.9 1014.9 0.0
30/10:30am 24.7 25.3 14.2 52 6.2 NNE 4 7 2 4 1015.1 1015.1 0.0
30/10:00am 23.6 24.5 14.0 55 5.6 N 2 7 1 4 1015.6 1015.6 0.0
30/09:30am 22.6 23.6 14.2 59 4.9 SE 2 4 1 2 1015.7 1015.7 0.0
30/09:00am 20.9 22.0 14.5 67 3.7 N 2 6 1 3 1015.8 1015.8 0.0
30/08:30am 18.1 18.9 13.6 75 2.6 N 2 4 1 2 1015.7 1015.7 0.0
30/08:00am 16.4 17.7 14.1 86 1.3 CALM 0 0 0 0 1015.9 1015.9 0.0
30/07:30am 13.4 14.2 12.6 95 0.4 CALM 0 0 0 0 1015.8 1015.8 0.0
30/07:00am 11.0 11.2 10.5 97 0.3 CALM 0 0 0 0 1015.7 1015.7 0.0
30/06:30am 10.1 10.0 9.5 96 0.3 CALM 0 0 0 0 1015.6 1015.6 0.0
30/06:00am 9.8 9.6 9.2 96 0.3 CALM 0 0 0 0 1015.0 1015.0 0.0
30/05:30am 10.2 10.1 9.6 96 0.3 CALM 0 0 0 0 1015.2 1015.2 0.0
30/05:00am 10.4 10.4 9.8 96 0.3 CALM 0 0 0 0 1015.2 1015.2 0.0
30/04:30am 10.7 10.7 9.9 95 0.4 CALM 0 0 0 0 1015.1 1015.1 0.0
30/04:00am 10.9 11.0 10.1 95 0.4 CALM 0 0 0 0 1015.2 1015.2 0.0
30/03:30am 11.4 11.6 10.6 95 0.4 CALM 0 0 0 0 1015.2 1015.2 0.0
30/03:00am 11.8 12.1 10.9 94 0.5 CALM 0 0 0 0 1015.4 1015.4 0.0
30/02:30am 11.9 12.3 11.1 95 0.4 CALM 0 0 0 0 1015.4 1015.4 0.0
30/02:00am 12.4 12.9 11.5 94 0.5 CALM 0 0 0 0 1015.6 1015.6 0.0
30/01:30am 12.7 13.3 11.8 94 0.5 CALM 0 0 0 0 1016.0 1016.0 0.0
30/01:00am 12.5 12.9 11.4 93 0.6 CALM 0 0 0 0 1016.3 1016.3 0.0
30/12:30am 13.1 13.8 12.2 94 0.5 CALM 0 0 0 0 1016.7 1016.7 0.0
30/12:00am 13.5 14.2 12.2 92 0.7 CALM 0 0 0 0 1017.0 1017.0 0.0
 
Date/Time
EDT
Temp
°C
App
Temp
°C
Dew
Point
Rel
Hum
%
Delta-T
°C
Wind Press
QNH
hPa
Press
MSL
hPa
Rain
since 9 am
mm
Dir
 
Spd
km/h
Gust
km/h
Spd
kts
Gust
kts
29/11:30pm 13.9 14.7 12.6 92 0.7 CALM 0 0 0 0 1017.1 1017.1 0.0
29/11:00pm 14.5 15.4 13.0 91 0.8 CALM 0 0 0 0 1017.0 1017.0 0.0
29/10:30pm 15.0 16.0 13.2 89 1.0 CALM 0 0 0 0 1017.1 1017.1 0.0
29/10:00pm 15.6 16.5 12.9 84 1.5 CALM 0 0 0 0 1017.1 1017.1 0.0
29/09:30pm 16.4 17.4 13.3 82 1.7 CALM 0 0 0 0 1017.2 1017.2 0.0
29/09:00pm 17.3 18.3 13.2 77 2.3 CALM 0 2 0 1 1016.9 1016.9 0.0
29/08:30pm 17.9 18.5 13.2 74 2.6 ENE 2 4 1 2 1016.5 1016.5 0.0
29/08:00pm 18.3 18.3 13.6 74 2.7 ENE 6 9 3 5 1016.3 1016.3 0.0
29/07:30pm 18.5 18.7 12.9 70 3.1 E 4 9 2 5 1016.1 1016.1 0.0
29/07:00pm 19.3 18.9 13.0 67 3.6 NE 7 20 4 11 1015.8 1015.8 0.0
29/06:30pm 20.0 19.4 13.5 66 3.7 E 9 22 5 12 1015.6 1015.6 0.0
29/06:00pm 20.4 18.6 13.4 64 4.0 E 15 26 8 14 1015.3 1015.3 0.0
29/05:30pm 20.8 19.1 13.5 63 4.2 E 15 24 8 13 1015.2 1015.2 0.0
29/05:00pm 21.3 19.3 14.0 63 4.2 E 17 28 9 15 1015.1 1015.1 0.0
29/04:30pm 21.5 19.3 13.2 59 4.8 E 17 28 9 15 1015.2 1015.2 0.0
29/04:00pm 22.3 20.6 12.5 53 5.6 ESE 13 24 7 13 1015.4 1015.4 0.0
29/03:30pm 22.3 20.6 12.3 53 5.7 ENE 13 26 7 14 1015.4 1015.4 0.0
29/03:00pm 22.7 20.8 11.7 49 6.2 ENE 13 22 7 12 1015.8 1015.8 0.0
29/02:30pm 23.9 22.5 12.2 48 6.7 E 11 20 6 11 1016.1 1016.1 0.0
29/02:00pm 23.5 21.3 10.9 45 7.0 E 13 20 7 11 1016.2 1016.2 0.0
29/01:30pm 23.7 21.6 9.7 41 7.6 ESE 11 22 6 12 1016.3 1016.3 0.0
29/01:00pm 24.0 22.0 10.3 42 7.5 ESE 11 20 6 11 1016.3 1016.3 0.0
29/12:30pm 23.8 21.6 9.4 40 7.8 ESE 11 19 6 10 1016.6 1016.6 0.0
29/12:00pm 24.4 22.5 7.5 34 8.9 SSE 7 17 4 9 1016.9 1016.9 0.0
29/11:30am 24.5 22.5 6.3 31 9.4 SW 6 13 3 7 1017.2 1017.2 0.0
29/11:00am 23.6 21.4 6.0 32 8.9 WSW 7 15 4 8 1017.5 1017.5 0.0
29/10:30am 23.1 20.9 6.0 33 8.7 S 7 13 4 7 1017.6 1017.6 0.0
29/10:00am 22.7 20.6 6.5 35 8.3 S 7 17 4 9 1017.7 1017.7 0.0
29/09:30am 22.7 20.6 6.5 35 8.3 S 7 19 4 10 1017.6 1017.6 0.0
29/09:00am 22.0 20.3 7.4 39 7.5 SW 6 15 3 8 1017.4 1017.4 0.0
29/08:30am 21.2 21.6 11.2 53 5.5 CALM 0 0 0 0 1017.3 1017.3 0.0
29/08:00am 18.0 18.2 10.6 62 4.0 CALM 0 4 0 2 1017.1 1017.1 0.0
29/07:30am 13.8 13.9 10.0 78 2.0 CALM 0 0 0 0 1016.8 1016.8 0.0
29/07:00am 11.3 11.2 9.4 88 1.0 CALM 0 0 0 0 1016.6 1016.6 0.0
29/06:30am 9.4 8.9 8.0 91 0.7 CALM 0 0 0 0 1016.4 1016.4 0.0
29/06:00am 9.5 9.0 7.9 90 0.8 CALM 0 0 0 0 1016.1 1016.1 0.0
29/05:30am 9.8 9.4 8.2 90 0.8 CALM 0 0 0 0 1015.6 1015.6 0.0
29/05:00am 10.0 9.6 8.1 88 0.9 CALM 0 0 0 0 1015.3 1015.3 0.0
29/04:30am 10.1 9.6 8.0 87 1.0 CALM 0 0 0 0 1014.9 1014.9 0.0
29/04:00am 10.5 10.0 7.7 83 1.3 CALM 0 0 0 0 1014.8 1014.8 0.0
29/03:30am 10.9 10.4 8.0 82 1.4 CALM 0 0 0 0 1014.6 1014.6 0.0
29/03:00am 11.4 11.0 8.3 81 1.5 CALM 0 0 0 0 1014.5 1014.5 0.0
29/02:30am 11.6 11.1 7.9 78 1.8 CALM 0 0 0 0 1014.2 1014.2 0.0
29/02:00am 12.3 11.8 7.8 74 2.2 CALM 0 4 0 2 1014.1 1014.1 0.0
29/01:30am 13.1 12.6 7.8 70 2.6 CALM 0 2 0 1 1014.0 1014.0 0.0
29/01:00am 13.6 12.7 7.6 67 2.9 NNE 2 4 1 2 1013.9 1013.9 0.0
29/12:30am 15.3 13.7 6.3 55 4.4 NW 4 7 2 4 1014.0 1014.0 0.0
29/12:00am 16.3 15.5 6.7 53 4.7 CALM 0 0 0 0 1014.0 1014.0 0.0
 
Date/Time
EDT
Temp
°C
App
Temp
°C
Dew
Point
Rel
Hum
%
Delta-T
°C
Wind Press
QNH
hPa
Press
MSL
hPa
Rain
since 9 am
mm
Dir
 
Spd
km/h
Gust
km/h
Spd
kts
Gust
kts
28/11:30pm 19.5 17.3 3.6 35 7.5 W 4 9 2 5 1013.7 1013.7 0.0
28/11:00pm 19.3 17.4 3.1 34 7.6 WSW 2 7 1 4 1013.5 1013.5 0.0

Other Formats:

Comma delimited format used in spreadsheet applications
http://www.bom.gov.au/fwo/IDN60801/IDN60801.95767.axf

JavaScript Object Notation format (JSON) in row-major order
http://www.bom.gov.au/fwo/IDN60801/IDN60801.95767.json